sensor_id;sensor_type;location;lat;lon;timestamp;P1;durP1;ratioP1;P2;durP2;ratioP2
1699;SDS011;847;48.058;7.810;2023-06-24T00:01:34;5.93;;;5.40;;
1699;SDS011;847;48.058;7.810;2023-06-24T00:04:01;6.70;;;6.10;;
1699;SDS011;847;48.058;7.810;2023-06-24T00:06:28;5.83;;;5.33;;
1699;SDS011;847;48.058;7.810;2023-06-24T00:08:55;6.73;;;4.97;;
1699;SDS011;847;48.058;7.810;2023-06-24T00:11:26;11.27;;;6.00;;
1699;SDS011;847;48.058;7.810;2023-06-24T00:13:54;8.13;;;5.30;;
1699;SDS011;847;48.058;7.810;2023-06-24T00:16:20;5.80;;;5.30;;
1699;SDS011;847;48.058;7.810;2023-06-24T00:18:53;6.10;;;5.50;;
1699;SDS011;847;48.058;7.810;2023-06-24T00:21:25;6.93;;;5.97;;
1699;SDS011;847;48.058;7.810;2023-06-24T00:23:55;6.80;;;5.93;;
1699;SDS011;847;48.058;7.810;2023-06-24T00:26:22;5.67;;;5.17;;
1699;SDS011;847;48.058;7.810;2023-06-24T00:28:49;6.30;;;5.70;;
1699;SDS011;847;48.058;7.810;2023-06-24T00:31:16;5.57;;;5.07;;
1699;SDS011;847;48.058;7.810;2023-06-24T00:33:42;7.90;;;5.53;;
1699;SDS011;847;48.058;7.810;2023-06-24T00:36:10;7.53;;;5.30;;
1699;SDS011;847;48.058;7.810;2023-06-24T00:38:37;5.57;;;4.83;;
1699;SDS011;847;48.058;7.810;2023-06-24T00:41:04;6.20;;;5.60;;
1699;SDS011;847;48.058;7.810;2023-06-24T00:43:31;6.23;;;5.63;;
1699;SDS011;847;48.058;7.810;2023-06-24T00:45:58;5.90;;;5.40;;
1699;SDS011;847;48.058;7.810;2023-06-24T00:48:26;7.10;;;6.50;;
1699;SDS011;847;48.058;7.810;2023-06-24T00:50:53;5.53;;;5.03;;
1699;SDS011;847;48.058;7.810;2023-06-24T00:53:21;6.90;;;6.20;;
1699;SDS011;847;48.058;7.810;2023-06-24T00:55:49;6.07;;;5.50;;
1699;SDS011;847;48.058;7.810;2023-06-24T00:58:17;5.87;;;5.37;;
1699;SDS011;847;48.058;7.810;2023-06-24T01:00:46;5.57;;;4.90;;
1699;SDS011;847;48.058;7.810;2023-06-24T01:03:22;7.53;;;5.40;;
1699;SDS011;847;48.058;7.810;2023-06-24T01:05:50;6.20;;;5.50;;
1699;SDS011;847;48.058;7.810;2023-06-24T01:08:17;6.53;;;5.93;;
1699;SDS011;847;48.058;7.810;2023-06-24T01:10:45;5.37;;;4.87;;
1699;SDS011;847;48.058;7.810;2023-06-24T01:13:12;6.20;;;5.20;;
1699;SDS011;847;48.058;7.810;2023-06-24T01:15:39;5.53;;;4.60;;
1699;SDS011;847;48.058;7.810;2023-06-24T01:18:07;6.77;;;6.17;;
1699;SDS011;847;48.058;7.810;2023-06-24T01:20:40;7.10;;;5.77;;
1699;SDS011;847;48.058;7.810;2023-06-24T01:23:19;6.20;;;5.03;;
1699;SDS011;847;48.058;7.810;2023-06-24T01:29:09;5.77;;;5.27;;
1699;SDS011;847;48.058;7.810;2023-06-24T01:31:59;5.67;;;5.17;;
1699;SDS011;847;48.058;7.810;2023-06-24T01:34:34;10.00;;;5.50;;
1699;SDS011;847;48.058;7.810;2023-06-24T01:37:11;6.83;;;5.20;;
1699;SDS011;847;48.058;7.810;2023-06-24T01:39:45;5.87;;;5.37;;
1699;SDS011;847;48.058;7.810;2023-06-24T01:42:14;6.53;;;5.90;;
1699;SDS011;847;48.058;7.810;2023-06-24T01:44:43;6.30;;;5.57;;
1699;SDS011;847;48.058;7.810;2023-06-24T01:47:14;5.53;;;5.03;;
1699;SDS011;847;48.058;7.810;2023-06-24T01:49:44;6.03;;;5.43;;
1699;SDS011;847;48.058;7.810;2023-06-24T01:52:12;6.10;;;5.30;;
1699;SDS011;847;48.058;7.810;2023-06-24T01:54:40;5.60;;;5.10;;
1699;SDS011;847;48.058;7.810;2023-06-24T01:57:08;6.43;;;5.70;;
1699;SDS011;847;48.058;7.810;2023-06-24T01:59:38;6.13;;;5.20;;
1699;SDS011;847;48.058;7.810;2023-06-24T02:02:09;6.50;;;5.73;;
1699;SDS011;847;48.058;7.810;2023-06-24T02:04:39;5.93;;;5.30;;
1699;SDS011;847;48.058;7.810;2023-06-24T02:07:06;6.47;;;5.87;;
1699;SDS011;847;48.058;7.810;2023-06-24T02:09:35;6.80;;;5.60;;
1699;SDS011;847;48.058;7.810;2023-06-24T02:12:04;6.63;;;5.87;;
1699;SDS011;847;48.058;7.810;2023-06-24T02:14:32;7.23;;;5.17;;
1699;SDS011;847;48.058;7.810;2023-06-24T02:17:01;8.80;;;5.77;;
1699;SDS011;847;48.058;7.810;2023-06-24T02:19:31;7.37;;;5.90;;
1699;SDS011;847;48.058;7.810;2023-06-24T02:22:00;5.90;;;5.40;;
1699;SDS011;847;48.058;7.810;2023-06-24T02:24:29;7.03;;;5.40;;
1699;SDS011;847;48.058;7.810;2023-06-24T02:26:56;6.70;;;6.10;;
1699;SDS011;847;48.058;7.810;2023-06-24T02:29:25;10.03;;;5.50;;
1699;SDS011;847;48.058;7.810;2023-06-24T02:31:53;8.00;;;5.40;;
1699;SDS011;847;48.058;7.810;2023-06-24T02:34:20;6.70;;;5.43;;
1699;SDS011;847;48.058;7.810;2023-06-24T02:36:48;6.03;;;5.43;;
1699;SDS011;847;48.058;7.810;2023-06-24T02:39:16;6.53;;;5.93;;
1699;SDS011;847;48.058;7.810;2023-06-24T02:41:44;7.17;;;6.47;;
1699;SDS011;847;48.058;7.810;2023-06-24T02:44:12;6.87;;;5.80;;
1699;SDS011;847;48.058;7.810;2023-06-24T02:46:39;7.30;;;5.87;;
1699;SDS011;847;48.058;7.810;2023-06-24T02:49:08;8.80;;;5.83;;
1699;SDS011;847;48.058;7.810;2023-06-24T02:51:36;6.90;;;5.73;;
1699;SDS011;847;48.058;7.810;2023-06-24T02:54:04;5.80;;;5.30;;
1699;SDS011;847;48.058;7.810;2023-06-24T02:56:33;6.20;;;5.63;;
1699;SDS011;847;48.058;7.810;2023-06-24T02:59:08;7.33;;;5.63;;
1699;SDS011;847;48.058;7.810;2023-06-24T03:01:35;6.37;;;5.57;;
1699;SDS011;847;48.058;7.810;2023-06-24T03:04:03;6.20;;;5.60;;
1699;SDS011;847;48.058;7.810;2023-06-24T03:06:31;6.87;;;6.27;;
1699;SDS011;847;48.058;7.810;2023-06-24T03:09:01;5.93;;;5.30;;
1699;SDS011;847;48.058;7.810;2023-06-24T03:11:29;6.10;;;5.43;;
1699;SDS011;847;48.058;7.810;2023-06-24T03:13:59;6.70;;;5.87;;
1699;SDS011;847;48.058;7.810;2023-06-24T03:16:26;6.60;;;6.00;;
1699;SDS011;847;48.058;7.810;2023-06-24T03:18:53;8.20;;;6.33;;
1699;SDS011;847;48.058;7.810;2023-06-24T03:21:19;6.03;;;5.43;;
1699;SDS011;847;48.058;7.810;2023-06-24T03:23:46;7.37;;;6.27;;
1699;SDS011;847;48.058;7.810;2023-06-24T03:26:13;8.20;;;5.60;;
1699;SDS011;847;48.058;7.810;2023-06-24T03:28:39;7.70;;;6.20;;
1699;SDS011;847;48.058;7.810;2023-06-24T03:31:08;6.47;;;5.70;;
1699;SDS011;847;48.058;7.810;2023-06-24T03:33:34;6.10;;;5.50;;
1699;SDS011;847;48.058;7.810;2023-06-24T03:36:02;8.63;;;6.30;;
1699;SDS011;847;48.058;7.810;2023-06-24T03:38:29;6.90;;;5.77;;
1699;SDS011;847;48.058;7.810;2023-06-24T03:40:56;9.30;;;5.80;;
1699;SDS011;847;48.058;7.810;2023-06-24T03:43:23;10.43;;;6.60;;
1699;SDS011;847;48.058;7.810;2023-06-24T03:45:50;7.50;;;6.80;;
1699;SDS011;847;48.058;7.810;2023-06-24T03:48:18;6.87;;;6.07;;
1699;SDS011;847;48.058;7.810;2023-06-24T03:50:44;7.23;;;6.33;;
1699;SDS011;847;48.058;7.810;2023-06-24T03:53:11;8.47;;;5.70;;
1699;SDS011;847;48.058;7.810;2023-06-24T03:55:38;6.37;;;5.77;;
1699;SDS011;847;48.058;7.810;2023-06-24T03:58:05;6.80;;;6.20;;
1699;SDS011;847;48.058;7.810;2023-06-24T04:00:33;8.60;;;6.17;;
1699;SDS011;847;48.058;7.810;2023-06-24T04:03:04;6.87;;;5.60;;
1699;SDS011;847;48.058;7.810;2023-06-24T04:05:33;6.50;;;5.90;;
1699;SDS011;847;48.058;7.810;2023-06-24T04:08:00;6.90;;;5.67;;
1699;SDS011;847;48.058;7.810;2023-06-24T04:10:30;6.77;;;6.03;;
1699;SDS011;847;48.058;7.810;2023-06-24T04:12:57;7.13;;;6.00;;
1699;SDS011;847;48.058;7.810;2023-06-24T04:15:24;6.40;;;5.77;;
1699;SDS011;847;48.058;7.810;2023-06-24T04:17:51;12.60;;;5.80;;
1699;SDS011;847;48.058;7.810;2023-06-24T04:20:17;6.57;;;5.93;;
1699;SDS011;847;48.058;7.810;2023-06-24T04:22:45;6.07;;;5.47;;
1699;SDS011;847;48.058;7.810;2023-06-24T04:25:12;8.70;;;5.87;;
1699;SDS011;847;48.058;7.810;2023-06-24T04:27:39;7.07;;;6.37;;
1699;SDS011;847;48.058;7.810;2023-06-24T04:30:06;8.70;;;6.50;;
1699;SDS011;847;48.058;7.810;2023-06-24T04:32:33;6.53;;;6.00;;
1699;SDS011;847;48.058;7.810;2023-06-24T04:35:00;7.70;;;7.00;;
1699;SDS011;847;48.058;7.810;2023-06-24T04:37:27;7.53;;;6.17;;
1699;SDS011;847;48.058;7.810;2023-06-24T04:39:55;6.40;;;5.80;;
1699;SDS011;847;48.058;7.810;2023-06-24T04:42:22;6.90;;;6.03;;
1699;SDS011;847;48.058;7.810;2023-06-24T04:44:49;7.80;;;7.00;;
1699;SDS011;847;48.058;7.810;2023-06-24T04:47:16;10.53;;;6.40;;
1699;SDS011;847;48.058;7.810;2023-06-24T04:49:43;8.60;;;6.20;;
1699;SDS011;847;48.058;7.810;2023-06-24T04:52:10;8.30;;;6.87;;
1699;SDS011;847;48.058;7.810;2023-06-24T04:54:37;7.37;;;6.47;;
1699;SDS011;847;48.058;7.810;2023-06-24T04:57:06;7.57;;;6.63;;
1699;SDS011;847;48.058;7.810;2023-06-24T04:59:34;6.70;;;6.00;;
1699;SDS011;847;48.058;7.810;2023-06-24T05:02:01;6.83;;;6.13;;
1699;SDS011;847;48.058;7.810;2023-06-24T05:04:28;6.03;;;5.43;;
1699;SDS011;847;48.058;7.810;2023-06-24T05:06:54;7.70;;;7.00;;
1699;SDS011;847;48.058;7.810;2023-06-24T05:09:21;9.10;;;7.57;;
1699;SDS011;847;48.058;7.810;2023-06-24T05:11:48;8.67;;;6.37;;
1699;SDS011;847;48.058;7.810;2023-06-24T05:14:16;8.20;;;6.97;;
1699;SDS011;847;48.058;7.810;2023-06-24T05:16:42;6.83;;;6.13;;
1699;SDS011;847;48.058;7.810;2023-06-24T05:19:10;7.87;;;6.60;;
1699;SDS011;847;48.058;7.810;2023-06-24T05:21:37;9.90;;;6.90;;
1699;SDS011;847;48.058;7.810;2023-06-24T05:24:04;6.50;;;5.80;;
1699;SDS011;847;48.058;7.810;2023-06-24T05:26:31;7.13;;;5.77;;
1699;SDS011;847;48.058;7.810;2023-06-24T05:28:58;7.23;;;6.63;;
1699;SDS011;847;48.058;7.810;2023-06-24T05:31:26;8.80;;;5.90;;
1699;SDS011;847;48.058;7.810;2023-06-24T05:33:52;6.73;;;6.13;;
1699;SDS011;847;48.058;7.810;2023-06-24T05:36:19;6.63;;;6.03;;
1699;SDS011;847;48.058;7.810;2023-06-24T05:38:47;8.80;;;6.67;;
1699;SDS011;847;48.058;7.810;2023-06-24T05:41:14;9.57;;;6.67;;
1699;SDS011;847;48.058;7.810;2023-06-24T05:43:42;6.37;;;5.77;;
1699;SDS011;847;48.058;7.810;2023-06-24T05:46:09;6.70;;;6.00;;
1699;SDS011;847;48.058;7.810;2023-06-24T05:48:37;7.33;;;6.63;;
1699;SDS011;847;48.058;7.810;2023-06-24T05:51:04;7.30;;;6.30;;
1699;SDS011;847;48.058;7.810;2023-06-24T05:53:30;7.10;;;6.40;;
1699;SDS011;847;48.058;7.810;2023-06-24T05:55:57;6.83;;;6.23;;
1699;SDS011;847;48.058;7.810;2023-06-24T05:58:24;6.27;;;5.67;;
1699;SDS011;847;48.058;7.810;2023-06-24T06:00:50;6.33;;;5.70;;
1699;SDS011;847;48.058;7.810;2023-06-24T06:03:17;6.40;;;5.80;;
1699;SDS011;847;48.058;7.810;2023-06-24T06:05:45;6.30;;;5.70;;
1699;SDS011;847;48.058;7.810;2023-06-24T06:08:12;6.43;;;5.60;;
1699;SDS011;847;48.058;7.810;2023-06-24T06:10:39;6.00;;;5.40;;
1699;SDS011;847;48.058;7.810;2023-06-24T06:13:06;6.30;;;5.57;;
1699;SDS011;847;48.058;7.810;2023-06-24T06:15:33;6.00;;;5.40;;
1699;SDS011;847;48.058;7.810;2023-06-24T06:18:00;5.87;;;5.37;;
1699;SDS011;847;48.058;7.810;2023-06-24T06:20:26;6.23;;;5.53;;
1699;SDS011;847;48.058;7.810;2023-06-24T06:22:54;6.73;;;5.47;;
1699;SDS011;847;48.058;7.810;2023-06-24T06:25:21;6.50;;;5.90;;
1699;SDS011;847;48.058;7.810;2023-06-24T06:27:48;5.93;;;5.43;;
1699;SDS011;847;48.058;7.810;2023-06-24T06:30:15;6.07;;;5.50;;
1699;SDS011;847;48.058;7.810;2023-06-24T06:32:42;7.03;;;6.43;;
1699;SDS011;847;48.058;7.810;2023-06-24T06:35:09;7.13;;;6.23;;
1699;SDS011;847;48.058;7.810;2023-06-24T06:37:36;7.03;;;6.23;;
1699;SDS011;847;48.058;7.810;2023-06-24T06:40:05;6.77;;;6.07;;
1699;SDS011;847;48.058;7.810;2023-06-24T06:42:33;6.17;;;5.57;;
1699;SDS011;847;48.058;7.810;2023-06-24T06:44:59;6.50;;;5.90;;
1699;SDS011;847;48.058;7.810;2023-06-24T06:47:26;6.63;;;5.90;;
1699;SDS011;847;48.058;7.810;2023-06-24T06:49:53;8.57;;;6.00;;
1699;SDS011;847;48.058;7.810;2023-06-24T06:52:19;5.40;;;5.00;;
1699;SDS011;847;48.058;7.810;2023-06-24T06:54:46;6.10;;;5.50;;
1699;SDS011;847;48.058;7.810;2023-06-24T06:57:14;5.70;;;5.20;;
1699;SDS011;847;48.058;7.810;2023-06-24T06:59:41;6.23;;;5.57;;
1699;SDS011;847;48.058;7.810;2023-06-24T07:02:08;6.83;;;6.17;;
1699;SDS011;847;48.058;7.810;2023-06-24T07:04:34;5.73;;;5.23;;
1699;SDS011;847;48.058;7.810;2023-06-24T07:07:01;5.30;;;4.90;;
1699;SDS011;847;48.058;7.810;2023-06-24T07:09:28;6.50;;;5.50;;
1699;SDS011;847;48.058;7.810;2023-06-24T07:11:54;6.10;;;5.40;;
1699;SDS011;847;48.058;7.810;2023-06-24T07:14:22;5.60;;;5.10;;
1699;SDS011;847;48.058;7.810;2023-06-24T07:16:49;5.53;;;5.00;;
1699;SDS011;847;48.058;7.810;2023-06-24T07:19:16;6.00;;;4.73;;
1699;SDS011;847;48.058;7.810;2023-06-24T07:21:43;6.17;;;5.57;;
1699;SDS011;847;48.058;7.810;2023-06-24T07:24:09;6.20;;;5.70;;
1699;SDS011;847;48.058;7.810;2023-06-24T07:26:36;5.57;;;5.10;;
1699;SDS011;847;48.058;7.810;2023-06-24T07:29:05;8.80;;;5.63;;
1699;SDS011;847;48.058;7.810;2023-06-24T07:31:33;6.50;;;5.17;;
1699;SDS011;847;48.058;7.810;2023-06-24T07:34:00;5.57;;;5.07;;
1699;SDS011;847;48.058;7.810;2023-06-24T07:36:27;6.60;;;5.00;;
1699;SDS011;847;48.058;7.810;2023-06-24T07:38:54;5.83;;;5.30;;
1699;SDS011;847;48.058;7.810;2023-06-24T07:41:21;5.20;;;4.70;;
1699;SDS011;847;48.058;7.810;2023-06-24T07:43:47;7.50;;;5.40;;
1699;SDS011;847;48.058;7.810;2023-06-24T07:46:14;7.50;;;6.23;;
1699;SDS011;847;48.058;7.810;2023-06-24T07:48:42;6.10;;;5.37;;
1699;SDS011;847;48.058;7.810;2023-06-24T07:51:09;5.83;;;5.23;;
1699;SDS011;847;48.058;7.810;2023-06-24T07:53:36;5.87;;;5.27;;
1699;SDS011;847;48.058;7.810;2023-06-24T07:56:03;6.10;;;5.50;;
1699;SDS011;847;48.058;7.810;2023-06-24T07:58:30;5.23;;;4.60;;
1699;SDS011;847;48.058;7.810;2023-06-24T08:00:56;5.83;;;5.03;;
1699;SDS011;847;48.058;7.810;2023-06-24T08:03:23;5.87;;;5.30;;
1699;SDS011;847;48.058;7.810;2023-06-24T08:05:51;5.43;;;4.97;;
1699;SDS011;847;48.058;7.810;2023-06-24T08:08:18;5.60;;;5.10;;
1699;SDS011;847;48.058;7.810;2023-06-24T08:10:45;5.50;;;5.00;;
1699;SDS011;847;48.058;7.810;2023-06-24T08:13:12;5.67;;;4.93;;
1699;SDS011;847;48.058;7.810;2023-06-24T08:15:39;5.70;;;5.20;;
1699;SDS011;847;48.058;7.810;2023-06-24T08:18:05;5.40;;;4.90;;
1699;SDS011;847;48.058;7.810;2023-06-24T08:20:32;5.00;;;4.50;;
1699;SDS011;847;48.058;7.810;2023-06-24T08:23:00;6.37;;;4.53;;
1699;SDS011;847;48.058;7.810;2023-06-24T08:25:27;5.60;;;5.07;;
1699;SDS011;847;48.058;7.810;2023-06-24T08:27:54;6.00;;;5.50;;
1699;SDS011;847;48.058;7.810;2023-06-24T08:30:20;5.70;;;5.20;;
1699;SDS011;847;48.058;7.810;2023-06-24T08:32:47;6.00;;;5.40;;
1699;SDS011;847;48.058;7.810;2023-06-24T08:35:14;6.00;;;5.30;;
1699;SDS011;847;48.058;7.810;2023-06-24T08:37:41;5.73;;;5.23;;
1699;SDS011;847;48.058;7.810;2023-06-24T08:40:09;6.33;;;5.73;;
1699;SDS011;847;48.058;7.810;2023-06-24T08:42:37;7.30;;;6.07;;
1699;SDS011;847;48.058;7.810;2023-06-24T08:45:04;6.27;;;5.67;;
1699;SDS011;847;48.058;7.810;2023-06-24T08:47:31;6.30;;;5.70;;
1699;SDS011;847;48.058;7.810;2023-06-24T08:52:53;5.70;;;5.20;;
1699;SDS011;847;48.058;7.810;2023-06-24T08:55:22;6.53;;;5.20;;
1699;SDS011;847;48.058;7.810;2023-06-24T08:57:49;5.87;;;5.30;;
1699;SDS011;847;48.058;7.810;2023-06-24T09:00:16;5.10;;;4.70;;
1699;SDS011;847;48.058;7.810;2023-06-24T09:02:44;5.23;;;4.80;;
1699;SDS011;847;48.058;7.810;2023-06-24T09:05:11;8.13;;;5.50;;
1699;SDS011;847;48.058;7.810;2023-06-24T09:07:37;5.57;;;4.83;;
1699;SDS011;847;48.058;7.810;2023-06-24T09:10:04;5.13;;;4.63;;
1699;SDS011;847;48.058;7.810;2023-06-24T09:12:34;6.83;;;5.23;;
1699;SDS011;847;48.058;7.810;2023-06-24T09:15:01;5.00;;;4.40;;
1699;SDS011;847;48.058;7.810;2023-06-24T09:17:29;5.80;;;5.40;;
1699;SDS011;847;48.058;7.810;2023-06-24T09:20:02;5.60;;;5.20;;
1699;SDS011;847;48.058;7.810;2023-06-24T09:22:30;7.27;;;5.23;;
1699;SDS011;847;48.058;7.810;2023-06-24T09:24:57;6.20;;;5.23;;
1699;SDS011;847;48.058;7.810;2023-06-24T09:27:30;5.23;;;4.73;;
1699;SDS011;847;48.058;7.810;2023-06-24T09:29:59;5.93;;;5.33;;
1699;SDS011;847;48.058;7.810;2023-06-24T09:32:26;6.23;;;5.73;;
1699;SDS011;847;48.058;7.810;2023-06-24T09:34:55;5.27;;;4.77;;
1699;SDS011;847;48.058;7.810;2023-06-24T09:37:22;5.83;;;5.00;;
1699;SDS011;847;48.058;7.810;2023-06-24T09:39:49;5.77;;;5.27;;
1699;SDS011;847;48.058;7.810;2023-06-24T09:42:20;5.63;;;5.17;;
1699;SDS011;847;48.058;7.810;2023-06-24T09:44:53;6.43;;;5.93;;
1699;SDS011;847;48.058;7.810;2023-06-24T09:47:20;5.80;;;5.20;;
1699;SDS011;847;48.058;7.810;2023-06-24T09:49:50;6.07;;;5.57;;
1699;SDS011;847;48.058;7.810;2023-06-24T09:52:17;7.33;;;5.40;;
1699;SDS011;847;48.058;7.810;2023-06-24T09:54:45;5.80;;;5.30;;
1699;SDS011;847;48.058;7.810;2023-06-24T09:57:16;5.50;;;5.00;;
1699;SDS011;847;48.058;7.810;2023-06-24T09:59:49;5.80;;;4.90;;
1699;SDS011;847;48.058;7.810;2023-06-24T10:02:17;6.03;;;5.43;;
1699;SDS011;847;48.058;7.810;2023-06-24T10:04:45;6.53;;;5.20;;
1699;SDS011;847;48.058;7.810;2023-06-24T10:07:12;5.40;;;4.87;;
1699;SDS011;847;48.058;7.810;2023-06-24T10:09:40;5.80;;;5.17;;
1699;SDS011;847;48.058;7.810;2023-06-24T10:12:08;6.10;;;5.53;;
1699;SDS011;847;48.058;7.810;2023-06-24T10:14:35;5.70;;;5.20;;
1699;SDS011;847;48.058;7.810;2023-06-24T10:17:03;6.17;;;5.53;;
1699;SDS011;847;48.058;7.810;2023-06-24T10:19:32;6.27;;;5.53;;
1699;SDS011;847;48.058;7.810;2023-06-24T10:22:06;6.00;;;5.47;;
1699;SDS011;847;48.058;7.810;2023-06-24T10:24:35;5.37;;;4.87;;
1699;SDS011;847;48.058;7.810;2023-06-24T10:27:04;6.40;;;5.90;;
1699;SDS011;847;48.058;7.810;2023-06-24T10:29:33;5.90;;;5.17;;
1699;SDS011;847;48.058;7.810;2023-06-24T10:32:04;5.80;;;5.20;;
1699;SDS011;847;48.058;7.810;2023-06-24T10:34:34;5.43;;;5.00;;
1699;SDS011;847;48.058;7.810;2023-06-24T10:37:08;5.73;;;5.30;;
1699;SDS011;847;48.058;7.810;2023-06-24T10:42:32;5.50;;;5.00;;
1699;SDS011;847;48.058;7.810;2023-06-24T10:45:02;6.20;;;5.70;;
1699;SDS011;847;48.058;7.810;2023-06-24T10:47:46;5.90;;;5.30;;
1699;SDS011;847;48.058;7.810;2023-06-24T10:50:16;5.50;;;5.00;;
1699;SDS011;847;48.058;7.810;2023-06-24T10:52:44;4.77;;;4.37;;
1699;SDS011;847;48.058;7.810;2023-06-24T10:55:15;5.00;;;4.60;;
1699;SDS011;847;48.058;7.810;2023-06-24T10:57:43;5.20;;;4.80;;
1699;SDS011;847;48.058;7.810;2023-06-24T11:00:11;4.70;;;4.30;;
1699;SDS011;847;48.058;7.810;2023-06-24T11:02:39;5.23;;;4.13;;
1699;SDS011;847;48.058;7.810;2023-06-24T11:05:06;4.67;;;4.10;;
1699;SDS011;847;48.058;7.810;2023-06-24T11:07:35;4.43;;;4.13;;
1699;SDS011;847;48.058;7.810;2023-06-24T11:10:03;5.10;;;4.60;;
1699;SDS011;847;48.058;7.810;2023-06-24T11:12:32;4.47;;;3.80;;
1699;SDS011;847;48.058;7.810;2023-06-24T11:15:00;4.20;;;3.80;;
1699;SDS011;847;48.058;7.810;2023-06-24T11:17:28;3.77;;;3.47;;
1699;SDS011;847;48.058;7.810;2023-06-24T11:19:56;5.93;;;4.17;;
1699;SDS011;847;48.058;7.810;2023-06-24T11:22:24;4.43;;;3.43;;
1699;SDS011;847;48.058;7.810;2023-06-24T11:24:53;4.00;;;3.70;;
1699;SDS011;847;48.058;7.810;2023-06-24T11:27:24;4.73;;;4.33;;
1699;SDS011;847;48.058;7.810;2023-06-24T11:29:52;5.03;;;4.53;;
1699;SDS011;847;48.058;7.810;2023-06-24T11:32:19;4.20;;;3.90;;
1699;SDS011;847;48.058;7.810;2023-06-24T11:34:46;4.63;;;4.23;;
1699;SDS011;847;48.058;7.810;2023-06-24T11:37:14;5.77;;;4.53;;
1699;SDS011;847;48.058;7.810;2023-06-24T11:39:41;4.53;;;4.13;;
1699;SDS011;847;48.058;7.810;2023-06-24T11:42:10;4.83;;;4.43;;
1699;SDS011;847;48.058;7.810;2023-06-24T11:44:40;4.10;;;3.70;;
1699;SDS011;847;48.058;7.810;2023-06-24T11:47:08;4.77;;;4.37;;
1699;SDS011;847;48.058;7.810;2023-06-24T11:49:48;4.70;;;4.30;;
1699;SDS011;847;48.058;7.810;2023-06-24T11:52:16;3.93;;;3.57;;
1699;SDS011;847;48.058;7.810;2023-06-24T11:54:43;4.07;;;3.67;;
1699;SDS011;847;48.058;7.810;2023-06-24T11:57:11;4.03;;;3.73;;
1699;SDS011;847;48.058;7.810;2023-06-24T11:59:38;3.73;;;3.43;;
1699;SDS011;847;48.058;7.810;2023-06-24T12:02:05;3.90;;;3.60;;
1699;SDS011;847;48.058;7.810;2023-06-24T12:04:32;4.00;;;3.70;;
1699;SDS011;847;48.058;7.810;2023-06-24T12:07:00;3.97;;;3.53;;
1699;SDS011;847;48.058;7.810;2023-06-24T12:09:27;5.43;;;4.20;;
1699;SDS011;847;48.058;7.810;2023-06-24T12:11:54;4.10;;;3.77;;
1699;SDS011;847;48.058;7.810;2023-06-24T12:14:22;4.50;;;4.10;;
1699;SDS011;847;48.058;7.810;2023-06-24T12:16:49;4.00;;;3.60;;
1699;SDS011;847;48.058;7.810;2023-06-24T12:19:16;3.70;;;3.40;;
1699;SDS011;847;48.058;7.810;2023-06-24T12:21:43;4.10;;;3.70;;
1699;SDS011;847;48.058;7.810;2023-06-24T12:24:09;4.33;;;3.57;;
1699;SDS011;847;48.058;7.810;2023-06-24T12:26:38;3.70;;;3.40;;
1699;SDS011;847;48.058;7.810;2023-06-24T12:29:05;3.80;;;3.50;;
1699;SDS011;847;48.058;7.810;2023-06-24T12:31:33;4.00;;;3.17;;
1699;SDS011;847;48.058;7.810;2023-06-24T12:34:00;4.70;;;4.17;;
1699;SDS011;847;48.058;7.810;2023-06-24T12:36:27;3.77;;;3.47;;
1699;SDS011;847;48.058;7.810;2023-06-24T12:38:53;3.60;;;3.30;;
1699;SDS011;847;48.058;7.810;2023-06-24T12:41:20;3.20;;;3.00;;
1699;SDS011;847;48.058;7.810;2023-06-24T12:43:47;4.50;;;3.23;;
1699;SDS011;847;48.058;7.810;2023-06-24T12:46:14;4.20;;;3.10;;
1699;SDS011;847;48.058;7.810;2023-06-24T12:48:42;4.37;;;3.60;;
1699;SDS011;847;48.058;7.810;2023-06-24T12:51:09;3.70;;;3.40;;
1699;SDS011;847;48.058;7.810;2023-06-24T12:53:36;4.07;;;3.03;;
1699;SDS011;847;48.058;7.810;2023-06-24T12:56:02;3.83;;;3.63;;
1699;SDS011;847;48.058;7.810;2023-06-24T12:58:29;4.20;;;3.53;;
1699;SDS011;847;48.058;7.810;2023-06-24T13:00:56;3.50;;;3.20;;
1699;SDS011;847;48.058;7.810;2023-06-24T13:03:23;4.20;;;3.80;;
1699;SDS011;847;48.058;7.810;2023-06-24T13:05:51;4.07;;;3.77;;
1699;SDS011;847;48.058;7.810;2023-06-24T13:08:18;3.60;;;3.00;;
1699;SDS011;847;48.058;7.810;2023-06-24T13:10:45;4.33;;;3.23;;
1699;SDS011;847;48.058;7.810;2023-06-24T13:13:12;4.07;;;3.63;;
1699;SDS011;847;48.058;7.810;2023-06-24T13:15:39;4.20;;;3.83;;
1699;SDS011;847;48.058;7.810;2023-06-24T13:18:05;3.70;;;3.40;;
1699;SDS011;847;48.058;7.810;2023-06-24T13:20:32;4.40;;;4.00;;
1699;SDS011;847;48.058;7.810;2023-06-24T13:23:00;3.93;;;3.63;;
1699;SDS011;847;48.058;7.810;2023-06-24T13:25:27;3.90;;;3.50;;
1699;SDS011;847;48.058;7.810;2023-06-24T13:27:54;3.60;;;3.30;;
1699;SDS011;847;48.058;7.810;2023-06-24T13:30:22;8.13;;;3.73;;
1699;SDS011;847;48.058;7.810;2023-06-24T13:32:49;3.63;;;3.33;;
1699;SDS011;847;48.058;7.810;2023-06-24T13:35:16;4.40;;;3.83;;
1699;SDS011;847;48.058;7.810;2023-06-24T13:37:42;4.10;;;3.70;;
1699;SDS011;847;48.058;7.810;2023-06-24T13:40:11;4.60;;;3.37;;
1699;SDS011;847;48.058;7.810;2023-06-24T13:42:38;3.57;;;3.27;;
1699;SDS011;847;48.058;7.810;2023-06-24T13:45:05;5.10;;;4.00;;
1699;SDS011;847;48.058;7.810;2023-06-24T13:47:32;4.40;;;4.00;;
1699;SDS011;847;48.058;7.810;2023-06-24T13:49:59;7.10;;;3.80;;
1699;SDS011;847;48.058;7.810;2023-06-24T13:52:25;4.03;;;3.53;;
1699;SDS011;847;48.058;7.810;2023-06-24T13:54:53;3.67;;;3.37;;
1699;SDS011;847;48.058;7.810;2023-06-24T13:57:21;5.10;;;4.20;;
1699;SDS011;847;48.058;7.810;2023-06-24T13:59:48;3.80;;;3.40;;
1699;SDS011;847;48.058;7.810;2023-06-24T14:02:14;5.00;;;3.87;;
1699;SDS011;847;48.058;7.810;2023-06-24T14:04:53;3.43;;;3.13;;
1699;SDS011;847;48.058;7.810;2023-06-24T14:07:19;3.40;;;3.10;;
1699;SDS011;847;48.058;7.810;2023-06-24T14:09:46;3.50;;;3.20;;
1699;SDS011;847;48.058;7.810;2023-06-24T14:12:13;3.83;;;3.53;;
1699;SDS011;847;48.058;7.810;2023-06-24T14:14:40;3.37;;;3.07;;
1699;SDS011;847;48.058;7.810;2023-06-24T14:17:06;4.10;;;3.70;;
1699;SDS011;847;48.058;7.810;2023-06-24T14:19:36;3.30;;;3.00;;
1699;SDS011;847;48.058;7.810;2023-06-24T14:22:05;3.97;;;3.57;;
1699;SDS011;847;48.058;7.810;2023-06-24T14:24:33;3.93;;;3.60;;
1699;SDS011;847;48.058;7.810;2023-06-24T14:27:00;3.33;;;3.03;;
1699;SDS011;847;48.058;7.810;2023-06-24T14:29:27;5.20;;;3.70;;
1699;SDS011;847;48.058;7.810;2023-06-24T14:31:54;3.37;;;3.07;;
1699;SDS011;847;48.058;7.810;2023-06-24T14:34:21;4.10;;;3.23;;
1699;SDS011;847;48.058;7.810;2023-06-24T14:36:47;3.60;;;3.30;;
1699;SDS011;847;48.058;7.810;2023-06-24T14:39:16;4.20;;;3.40;;
1699;SDS011;847;48.058;7.810;2023-06-24T14:41:43;3.60;;;3.30;;
1699;SDS011;847;48.058;7.810;2023-06-24T14:44:09;3.67;;;3.37;;
1699;SDS011;847;48.058;7.810;2023-06-24T14:46:36;3.93;;;3.30;;
1699;SDS011;847;48.058;7.810;2023-06-24T14:49:03;4.80;;;3.20;;
1699;SDS011;847;48.058;7.810;2023-06-24T14:51:30;3.87;;;3.57;;
1699;SDS011;847;48.058;7.810;2023-06-24T14:53:56;3.73;;;3.30;;
1699;SDS011;847;48.058;7.810;2023-06-24T14:56:24;3.20;;;2.90;;
1699;SDS011;847;48.058;7.810;2023-06-24T14:58:51;3.60;;;3.30;;
1699;SDS011;847;48.058;7.810;2023-06-24T15:01:18;8.20;;;7.50;;
1699;SDS011;847;48.058;7.810;2023-06-24T15:03:45;5.07;;;4.67;;
1699;SDS011;847;48.058;7.810;2023-06-24T15:06:11;5.50;;;4.00;;
1699;SDS011;847;48.058;7.810;2023-06-24T15:08:38;5.37;;;4.27;;
1699;SDS011;847;48.058;7.810;2023-06-24T15:11:05;3.80;;;3.40;;
1699;SDS011;847;48.058;7.810;2023-06-24T15:13:33;4.50;;;4.13;;
1699;SDS011;847;48.058;7.810;2023-06-24T15:16:00;7.30;;;6.70;;
1699;SDS011;847;48.058;7.810;2023-06-24T15:18:27;4.50;;;4.20;;
1699;SDS011;847;48.058;7.810;2023-06-24T15:20:55;6.83;;;6.23;;
1699;SDS011;847;48.058;7.810;2023-06-24T15:23:24;5.40;;;4.90;;
1699;SDS011;847;48.058;7.810;2023-06-24T15:25:57;4.90;;;4.50;;
1699;SDS011;847;48.058;7.810;2023-06-24T15:28:29;3.40;;;3.10;;
1699;SDS011;847;48.058;7.810;2023-06-24T15:30:59;3.50;;;3.20;;
1699;SDS011;847;48.058;7.810;2023-06-24T15:33:29;3.90;;;3.60;;
1699;SDS011;847;48.058;7.810;2023-06-24T15:35:56;4.20;;;3.63;;
1699;SDS011;847;48.058;7.810;2023-06-24T15:38:25;3.03;;;2.73;;
1699;SDS011;847;48.058;7.810;2023-06-24T15:40:52;4.20;;;3.83;;
1699;SDS011;847;48.058;7.810;2023-06-24T15:43:21;4.73;;;4.33;;